sensor_id;sensor_type;location;lat;lon;timestamp;pressure;altitude;pressure_sealevel;temperature;humidity
12664;BME280;6396;58.490;15.528;2023-04-23T00:01:46;100120.72;;;13.35;70.86
12664;BME280;6396;58.490;15.528;2023-04-23T00:04:15;100113.72;;;13.34;72.63
12664;BME280;6396;58.490;15.528;2023-04-23T00:06:46;100119.81;;;13.36;77.00
12664;BME280;6396;58.490;15.528;2023-04-23T00:09:14;100117.16;;;13.36;72.88
12664;BME280;6396;58.490;15.528;2023-04-23T00:11:42;100116.28;;;13.36;70.14
12664;BME280;6396;58.490;15.528;2023-04-23T00:14:09;100111.06;;;13.34;74.61
12664;BME280;6396;58.490;15.528;2023-04-23T00:16:38;99692.34;;;10.88;76.93
12664;BME280;6396;58.490;15.528;2023-04-23T00:19:05;99796.56;;;11.43;77.34
12664;BME280;6396;58.490;15.528;2023-04-23T00:21:31;100127.16;;;13.30;79.15
12664;BME280;6396;58.490;15.528;2023-04-23T00:24:00;100114.84;;;13.29;78.34
12664;BME280;6396;58.490;15.528;2023-04-23T00:26:26;100076.22;;;13.03;79.05
12664;BME280;6396;58.490;15.528;2023-04-23T00:28:53;99983.00;;;12.35;77.53
12664;BME280;6396;58.490;15.528;2023-04-23T00:31:20;100052.47;;;12.82;77.59
12664;BME280;6396;58.490;15.528;2023-04-23T00:33:48;100084.97;;;12.85;75.30
12664;BME280;6396;58.490;15.528;2023-04-23T00:36:17;100059.69;;;12.78;72.83
12664;BME280;6396;58.490;15.528;2023-04-23T00:38:44;100067.81;;;12.74;75.85
12664;BME280;6396;58.490;15.528;2023-04-23T00:41:13;100105.38;;;13.03;77.65
12664;BME280;6396;58.490;15.528;2023-04-23T00:43:41;100052.06;;;12.71;76.30
12664;BME280;6396;58.490;15.528;2023-04-23T00:46:08;99669.81;;;10.38;78.27
12664;BME280;6396;58.490;15.528;2023-04-23T00:48:35;100087.97;;;12.98;78.51
12664;BME280;6396;58.490;15.528;2023-04-23T00:51:03;100086.13;;;12.98;78.42
12664;BME280;6396;58.490;15.528;2023-04-23T00:53:31;100081.84;;;12.96;77.89
12664;BME280;6396;58.490;15.528;2023-04-23T00:56:00;100083.63;;;12.95;76.87
12664;BME280;6396;58.490;15.528;2023-04-23T00:58:29;100082.19;;;12.88;78.29
12664;BME280;6396;58.490;15.528;2023-04-23T01:00:56;100072.94;;;12.78;77.03
12664;BME280;6396;58.490;15.528;2023-04-23T01:03:24;100045.53;;;12.59;76.65
12664;BME280;6396;58.490;15.528;2023-04-23T01:05:51;100075.91;;;12.71;78.28
12664;BME280;6396;58.490;15.528;2023-04-23T01:08:19;100079.94;;;12.59;76.60
12664;BME280;6396;58.490;15.528;2023-04-23T01:10:47;99896.16;;;11.64;76.78
12664;BME280;6396;58.490;15.528;2023-04-23T01:13:16;100100.84;;;12.65;78.52
12664;BME280;6396;58.490;15.528;2023-04-23T01:15:44;100076.94;;;12.67;82.10
12664;BME280;6396;58.490;15.528;2023-04-23T01:18:11;100077.38;;;12.58;77.10
12664;BME280;6396;58.490;15.528;2023-04-23T01:20:38;100072.72;;;12.43;78.00
12664;BME280;6396;58.490;15.528;2023-04-23T01:23:06;100074.03;;;12.53;80.68
12664;BME280;6396;58.490;15.528;2023-04-23T01:25:33;99897.72;;;11.47;82.71
12664;BME280;6396;58.490;15.528;2023-04-23T01:28:00;100088.34;;;12.49;83.46
12664;BME280;6396;58.490;15.528;2023-04-23T01:30:29;100077.75;;;12.49;84.94
12664;BME280;6396;58.490;15.528;2023-04-23T01:32:56;100073.50;;;12.45;84.64
12664;BME280;6396;58.490;15.528;2023-04-23T01:35:24;100066.50;;;12.44;81.00
12664;BME280;6396;58.490;15.528;2023-04-23T01:37:52;100087.94;;;12.38;83.31
12664;BME280;6396;58.490;15.528;2023-04-23T01:40:22;100058.81;;;12.38;84.47
12664;BME280;6396;58.490;15.528;2023-04-23T01:42:49;100005.75;;;11.99;83.63
12664;BME280;6396;58.490;15.528;2023-04-23T01:45:16;99946.25;;;11.67;82.86
12664;BME280;6396;58.490;15.528;2023-04-23T01:47:44;100060.06;;;12.29;84.12
12664;BME280;6396;58.490;15.528;2023-04-23T01:50:11;99993.63;;;11.93;86.84
12664;BME280;6396;58.490;15.528;2023-04-23T01:52:38;100048.00;;;12.22;89.01
12664;BME280;6396;58.490;15.528;2023-04-23T01:55:06;99988.13;;;11.78;84.66
12664;BME280;6396;58.490;15.528;2023-04-23T01:57:35;99889.03;;;11.23;90.81
12664;BME280;6396;58.490;15.528;2023-04-23T02:00:05;100060.06;;;12.07;85.77
12664;BME280;6396;58.490;15.528;2023-04-23T02:02:33;99802.63;;;10.60;90.23
12664;BME280;6396;58.490;15.528;2023-04-23T02:05:00;99976.59;;;11.57;86.92
12664;BME280;6396;58.490;15.528;2023-04-23T02:07:29;99961.03;;;11.50;85.17
12664;BME280;6396;58.490;15.528;2023-04-23T02:09:56;100047.63;;;11.89;82.12
12664;BME280;6396;58.490;15.528;2023-04-23T02:12:23;100008.00;;;11.66;90.06
12664;BME280;6396;58.490;15.528;2023-04-23T02:14:51;100040.41;;;11.93;84.42
12664;BME280;6396;58.490;15.528;2023-04-23T02:17:19;99968.13;;;11.49;83.17
12664;BME280;6396;58.490;15.528;2023-04-23T02:19:47;100074.50;;;11.79;85.74
12664;BME280;6396;58.490;15.528;2023-04-23T02:22:14;100032.50;;;11.48;87.59
12664;BME280;6396;58.490;15.528;2023-04-23T02:24:41;99827.88;;;10.23;89.63
12664;BME280;6396;58.490;15.528;2023-04-23T02:27:08;100047.88;;;11.39;91.13
12664;BME280;6396;58.490;15.528;2023-04-23T02:29:35;100004.22;;;11.05;94.39
12664;BME280;6396;58.490;15.528;2023-04-23T02:32:04;99976.41;;;10.95;94.44
12664;BME280;6396;58.490;15.528;2023-04-23T02:34:31;99916.53;;;10.50;95.98
12664;BME280;6396;58.490;15.528;2023-04-23T02:36:58;100032.56;;;11.23;97.04
12664;BME280;6396;58.490;15.528;2023-04-23T02:39:25;100029.25;;;11.18;100.00
12664;BME280;6396;58.490;15.528;2023-04-23T02:41:51;99750.97;;;9.62;92.22
12664;BME280;6396;58.490;15.528;2023-04-23T02:44:18;99903.19;;;10.54;93.20
12664;BME280;6396;58.490;15.528;2023-04-23T02:46:45;99926.53;;;10.65;97.76
12664;BME280;6396;58.490;15.528;2023-04-23T02:49:13;99923.09;;;10.63;99.67
12664;BME280;6396;58.490;15.528;2023-04-23T02:51:40;99868.75;;;10.34;96.37
12664;BME280;6396;58.490;15.528;2023-04-23T02:54:07;99840.03;;;10.27;97.98
12664;BME280;6396;58.490;15.528;2023-04-23T02:56:53;99996.25;;;11.07;100.00
12664;BME280;6396;58.490;15.528;2023-04-23T02:59:21;99949.78;;;10.55;100.00
12664;BME280;6396;58.490;15.528;2023-04-23T03:01:50;99994.91;;;10.95;100.00
12664;BME280;6396;58.490;15.528;2023-04-23T03:04:18;99485.81;;;7.95;100.00
12664;BME280;6396;58.490;15.528;2023-04-23T03:06:55;99911.84;;;10.35;100.00
12664;BME280;6396;58.490;15.528;2023-04-23T03:09:22;99988.81;;;10.93;100.00
12664;BME280;6396;58.490;15.528;2023-04-23T03:12:07;100005.41;;;10.97;100.00
12664;BME280;6396;58.490;15.528;2023-04-23T03:14:34;99978.97;;;10.98;97.16
12664;BME280;6396;58.490;15.528;2023-04-23T03:17:21;99982.75;;;10.91;100.00
12664;BME280;6396;58.490;15.528;2023-04-23T03:19:50;99980.06;;;10.93;100.00
12664;BME280;6396;58.490;15.528;2023-04-23T03:22:21;99948.09;;;10.77;100.00
12664;BME280;6396;58.490;15.528;2023-04-23T03:24:47;99880.22;;;10.33;100.00
12664;BME280;6396;58.490;15.528;2023-04-23T03:27:21;99967.66;;;10.95;100.00
12664;BME280;6396;58.490;15.528;2023-04-23T03:29:48;99823.28;;;10.03;100.00
12664;BME280;6396;58.490;15.528;2023-04-23T03:32:16;99879.22;;;10.37;100.00
12664;BME280;6396;58.490;15.528;2023-04-23T03:34:43;99881.03;;;10.35;100.00
12664;BME280;6396;58.490;15.528;2023-04-23T03:37:17;99964.72;;;10.79;100.00
12664;BME280;6396;58.490;15.528;2023-04-23T03:39:44;99944.03;;;10.67;100.00
12664;BME280;6396;58.490;15.528;2023-04-23T03:42:11;99958.53;;;10.80;100.00
12664;BME280;6396;58.490;15.528;2023-04-23T03:44:37;99898.81;;;10.30;100.00
12664;BME280;6396;58.490;15.528;2023-04-23T03:47:05;99976.44;;;10.72;100.00
12664;BME280;6396;58.490;15.528;2023-04-23T03:49:32;99917.53;;;10.47;100.00
12664;BME280;6396;58.490;15.528;2023-04-23T03:52:01;99837.34;;;9.79;100.00
12664;BME280;6396;58.490;15.528;2023-04-23T03:54:29;99908.59;;;10.51;100.00
12664;BME280;6396;58.490;15.528;2023-04-23T03:57:03;99902.59;;;10.46;100.00
12664;BME280;6396;58.490;15.528;2023-04-23T03:59:30;99863.47;;;10.34;100.00
12664;BME280;6396;58.490;15.528;2023-04-23T04:01:58;99397.69;;;7.60;100.00
12664;BME280;6396;58.490;15.528;2023-04-23T04:04:25;99636.22;;;9.08;100.00
12664;BME280;6396;58.490;15.528;2023-04-23T04:06:53;99969.56;;;10.90;100.00
12664;BME280;6396;58.490;15.528;2023-04-23T04:09:20;99968.16;;;10.81;100.00
12664;BME280;6396;58.490;15.528;2023-04-23T04:11:54;99955.88;;;10.80;100.00
12664;BME280;6396;58.490;15.528;2023-04-23T04:14:21;99942.69;;;10.80;100.00
12664;BME280;6396;58.490;15.528;2023-04-23T04:16:48;99947.03;;;10.81;100.00
12664;BME280;6396;58.490;15.528;2023-04-23T04:19:15;99846.16;;;10.27;100.00
12664;BME280;6396;58.490;15.528;2023-04-23T04:21:42;99925.13;;;10.56;100.00
12664;BME280;6396;58.490;15.528;2023-04-23T04:24:09;99748.38;;;9.61;100.00
12664;BME280;6396;58.490;15.528;2023-04-23T04:26:36;99937.66;;;10.73;100.00
12664;BME280;6396;58.490;15.528;2023-04-23T04:29:05;99929.06;;;10.68;100.00
12664;BME280;6396;58.490;15.528;2023-04-23T04:31:33;99876.50;;;10.39;100.00
12664;BME280;6396;58.490;15.528;2023-04-23T04:34:02;99709.38;;;9.23;100.00
12664;BME280;6396;58.490;15.528;2023-04-23T04:36:31;99297.25;;;6.75;100.00
12664;BME280;6396;58.490;15.528;2023-04-23T04:39:01;99793.63;;;9.73;100.00
12664;BME280;6396;58.490;15.528;2023-04-23T04:41:29;99922.63;;;10.52;100.00
12664;BME280;6396;58.490;15.528;2023-04-23T04:43:56;99815.50;;;10.00;100.00
12664;BME280;6396;58.490;15.528;2023-04-23T04:46:25;99911.66;;;10.62;100.00
12664;BME280;6396;58.490;15.528;2023-04-23T04:48:55;99915.88;;;10.68;100.00
12664;BME280;6396;58.490;15.528;2023-04-23T04:51:22;99912.31;;;10.69;100.00
12664;BME280;6396;58.490;15.528;2023-04-23T04:53:48;99917.34;;;10.75;100.00
12664;BME280;6396;58.490;15.528;2023-04-23T04:56:15;99746.06;;;9.76;100.00
12664;BME280;6396;58.490;15.528;2023-04-23T04:58:44;99895.97;;;10.59;100.00
12664;BME280;6396;58.490;15.528;2023-04-23T05:01:11;99916.78;;;10.67;100.00
12664;BME280;6396;58.490;15.528;2023-04-23T05:03:39;99767.50;;;9.90;100.00
12664;BME280;6396;58.490;15.528;2023-04-23T05:06:06;99773.13;;;10.04;100.00
12664;BME280;6396;58.490;15.528;2023-04-23T05:08:49;99921.06;;;10.92;100.00
12664;BME280;6396;58.490;15.528;2023-04-23T05:11:17;99850.94;;;10.62;100.00
12664;BME280;6396;58.490;15.528;2023-04-23T05:13:44;99898.03;;;10.96;100.00
12664;BME280;6396;58.490;15.528;2023-04-23T05:16:12;99905.75;;;11.02;100.00
12664;BME280;6396;58.490;15.528;2023-04-23T05:18:40;99912.53;;;11.07;100.00
12664;BME280;6396;58.490;15.528;2023-04-23T05:21:08;99895.28;;;11.20;100.00
12664;BME280;6396;58.490;15.528;2023-04-23T05:23:48;99888.84;;;11.27;100.00
12664;BME280;6396;58.490;15.528;2023-04-23T05:26:15;99886.19;;;11.27;100.00
12664;BME280;6396;58.490;15.528;2023-04-23T05:28:45;99875.13;;;11.18;100.00
12664;BME280;6396;58.490;15.528;2023-04-23T05:31:12;99840.03;;;11.14;100.00
12664;BME280;6396;58.490;15.528;2023-04-23T05:33:47;99831.72;;;11.03;100.00
12664;BME280;6396;58.490;15.528;2023-04-23T05:36:14;99806.03;;;10.85;100.00
12664;BME280;6396;58.490;15.528;2023-04-23T05:38:48;99754.09;;;10.64;100.00
12664;BME280;6396;58.490;15.528;2023-04-23T05:41:15;99862.69;;;11.42;100.00
12664;BME280;6396;58.490;15.528;2023-04-23T05:43:42;99725.66;;;10.71;100.00
12664;BME280;6396;58.490;15.528;2023-04-23T05:46:09;99862.19;;;11.54;100.00
12664;BME280;6396;58.490;15.528;2023-04-23T05:48:46;99859.78;;;11.48;100.00
12664;BME280;6396;58.490;15.528;2023-04-23T05:51:13;99800.16;;;11.20;100.00
12664;BME280;6396;58.490;15.528;2023-04-23T05:53:41;99852.72;;;11.70;100.00
12664;BME280;6396;58.490;15.528;2023-04-23T05:56:08;99843.84;;;11.71;100.00
12664;BME280;6396;58.490;15.528;2023-04-23T05:58:35;99801.59;;;11.49;100.00
12664;BME280;6396;58.490;15.528;2023-04-23T06:01:03;99660.38;;;10.74;100.00
12664;BME280;6396;58.490;15.528;2023-04-23T06:03:32;99836.38;;;11.80;100.00
12664;BME280;6396;58.490;15.528;2023-04-23T06:06:01;99898.75;;;11.86;100.00
12664;BME280;6396;58.490;15.528;2023-04-23T06:08:30;99444.91;;;9.71;100.00
12664;BME280;6396;58.490;15.528;2023-04-23T06:10:57;99828.41;;;12.00;100.00
12664;BME280;6396;58.490;15.528;2023-04-23T06:13:27;99815.50;;;12.13;100.00
12664;BME280;6396;58.490;15.528;2023-04-23T06:15:55;99714.72;;;11.60;100.00
12664;BME280;6396;58.490;15.528;2023-04-23T06:18:22;99776.53;;;11.98;100.00
12664;BME280;6396;58.490;15.528;2023-04-23T06:20:49;99714.28;;;11.71;100.00
12664;BME280;6396;58.490;15.528;2023-04-23T06:23:22;99682.13;;;11.80;100.00
12664;BME280;6396;58.490;15.528;2023-04-23T06:25:49;99755.50;;;12.32;100.00
12664;BME280;6396;58.490;15.528;2023-04-23T06:28:16;99630.72;;;11.85;100.00
12664;BME280;6396;58.490;15.528;2023-04-23T06:30:43;99775.59;;;12.73;100.00
12664;BME280;6396;58.490;15.528;2023-04-23T06:33:10;99803.94;;;13.07;100.00
12664;BME280;6396;58.490;15.528;2023-04-23T06:35:42;99795.56;;;13.16;100.00
12664;BME280;6396;58.490;15.528;2023-04-23T06:38:11;99749.91;;;12.92;100.00
12664;BME280;6396;58.490;15.528;2023-04-23T06:40:39;99751.13;;;13.21;100.00
12664;BME280;6396;58.490;15.528;2023-04-23T06:43:17;99788.53;;;13.49;100.00
12664;BME280;6396;58.490;15.528;2023-04-23T06:45:43;99778.28;;;13.43;100.00
12664;BME280;6396;58.490;15.528;2023-04-23T06:48:11;99610.78;;;12.67;100.00
12664;BME280;6396;58.490;15.528;2023-04-23T06:50:38;99757.81;;;13.62;100.00
12664;BME280;6396;58.490;15.528;2023-04-23T06:53:14;99759.25;;;13.85;100.00
12664;BME280;6396;58.490;15.528;2023-04-23T06:55:42;99458.28;;;12.95;100.00
12664;BME280;6396;58.490;15.528;2023-04-23T06:58:12;99766.78;;;15.92;99.08
12664;BME280;6396;58.490;15.528;2023-04-23T07:00:38;99441.69;;;15.55;90.89
12664;BME280;6396;58.490;15.528;2023-04-23T07:03:06;99763.63;;;18.73;80.49
12664;BME280;6396;58.490;15.528;2023-04-23T07:05:33;99518.78;;;18.46;67.72
12664;BME280;6396;58.490;15.528;2023-04-23T07:08:00;99744.78;;;20.47;57.32
12664;BME280;6396;58.490;15.528;2023-04-23T07:10:27;99661.59;;;20.58;54.17
12664;BME280;6396;58.490;15.528;2023-04-23T07:12:58;99732.84;;;21.57;50.24
12664;BME280;6396;58.490;15.528;2023-04-23T07:15:25;99723.91;;;21.77;49.54
12664;BME280;6396;58.490;15.528;2023-04-23T07:17:52;99724.25;;;22.04;46.17
12664;BME280;6396;58.490;15.528;2023-04-23T07:20:19;99689.66;;;22.30;44.86
12664;BME280;6396;58.490;15.528;2023-04-23T07:22:47;99609.88;;;22.87;42.28
12664;BME280;6396;58.490;15.528;2023-04-23T07:25:14;99556.69;;;22.23;42.92
12664;BME280;6396;58.490;15.528;2023-04-23T07:28:06;99712.38;;;23.62;36.08
12664;BME280;6396;58.490;15.528;2023-04-23T07:30:33;99678.63;;;23.39;41.71
12664;BME280;6396;58.490;15.528;2023-04-23T07:33:00;99702.88;;;24.51;39.07
12664;BME280;6396;58.490;15.528;2023-04-23T07:35:26;99697.94;;;24.73;38.09
12664;BME280;6396;58.490;15.528;2023-04-23T07:37:56;99582.13;;;23.89;34.87
12664;BME280;6396;58.490;15.528;2023-04-23T07:40:23;99693.50;;;24.72;35.12
12664;BME280;6396;58.490;15.528;2023-04-23T07:42:50;99560.25;;;23.92;36.38
12664;BME280;6396;58.490;15.528;2023-04-23T07:45:19;99687.13;;;24.91;35.20
12664;BME280;6396;58.490;15.528;2023-04-23T07:47:49;99677.25;;;24.99;33.84
12664;BME280;6396;58.490;15.528;2023-04-23T07:50:15;99691.16;;;25.40;33.99
12664;BME280;6396;58.490;15.528;2023-04-23T07:52:43;99668.34;;;25.42;34.45
12664;BME280;6396;58.490;15.528;2023-04-23T07:55:10;99450.91;;;24.68;34.14
12664;BME280;6396;58.490;15.528;2023-04-23T07:57:45;99675.03;;;26.32;32.11
12664;BME280;6396;58.490;15.528;2023-04-23T08:00:12;99455.97;;;24.88;32.65
12664;BME280;6396;58.490;15.528;2023-04-23T08:02:43;99583.94;;;25.82;33.70
12664;BME280;6396;58.490;15.528;2023-04-23T08:05:10;99667.94;;;26.81;33.07
12664;BME280;6396;58.490;15.528;2023-04-23T08:07:37;99619.88;;;27.07;32.24
12664;BME280;6396;58.490;15.528;2023-04-23T08:10:04;99588.44;;;26.57;32.49
12664;BME280;6396;58.490;15.528;2023-04-23T08:12:32;99576.03;;;25.96;34.04
12664;BME280;6396;58.490;15.528;2023-04-23T08:15:00;99648.84;;;26.49;33.92
12664;BME280;6396;58.490;15.528;2023-04-23T08:17:27;99322.50;;;25.49;33.15
12664;BME280;6396;58.490;15.528;2023-04-23T08:19:56;99656.81;;;27.24;30.92
12664;BME280;6396;58.490;15.528;2023-04-23T08:22:23;99201.72;;;24.42;31.87
12664;BME280;6396;58.490;15.528;2023-04-23T08:24:50;99567.38;;;26.18;31.84
12664;BME280;6396;58.490;15.528;2023-04-23T08:27:17;99579.00;;;26.11;32.54
12664;BME280;6396;58.490;15.528;2023-04-23T08:29:46;99622.06;;;26.80;31.23
12664;BME280;6396;58.490;15.528;2023-04-23T08:32:13;99379.97;;;25.51;31.31
12664;BME280;6396;58.490;15.528;2023-04-23T08:34:42;99568.81;;;26.47;31.78
12664;BME280;6396;58.490;15.528;2023-04-23T08:37:10;99528.34;;;25.87;32.11
12664;BME280;6396;58.490;15.528;2023-04-23T08:39:38;99580.91;;;26.76;32.91
12664;BME280;6396;58.490;15.528;2023-04-23T08:42:09;99613.06;;;26.87;31.34
12664;BME280;6396;58.490;15.528;2023-04-23T08:44:39;99603.41;;;27.65;31.77
12664;BME280;6396;58.490;15.528;2023-04-23T08:47:09;99607.34;;;27.30;31.47
12664;BME280;6396;58.490;15.528;2023-04-23T08:49:40;99598.25;;;27.78;30.59
12664;BME280;6396;58.490;15.528;2023-04-23T08:52:14;99596.97;;;27.58;29.32
12664;BME280;6396;58.490;15.528;2023-04-23T08:54:47;99516.19;;;26.57;30.41
12664;BME280;6396;58.490;15.528;2023-04-23T08:57:15;99592.19;;;26.64;32.58
12664;BME280;6396;58.490;15.528;2023-04-23T08:59:44;99581.88;;;26.09;31.64
12664;BME280;6396;58.490;15.528;2023-04-23T09:02:11;99591.09;;;25.91;31.57
12664;BME280;6396;58.490;15.528;2023-04-23T09:04:41;99373.38;;;24.60;30.93
12664;BME280;6396;58.490;15.528;2023-04-23T09:07:08;99530.13;;;24.94;31.31
12664;BME280;6396;58.490;15.528;2023-04-23T09:09:38;99509.06;;;24.62;31.33
12664;BME280;6396;58.490;15.528;2023-04-23T09:12:06;99573.09;;;24.35;31.69
12664;BME280;6396;58.490;15.528;2023-04-23T09:14:34;99472.59;;;23.61;32.51
12664;BME280;6396;58.490;15.528;2023-04-23T09:17:01;99562.25;;;23.99;32.67
12664;BME280;6396;58.490;15.528;2023-04-23T09:19:36;99561.84;;;23.58;32.08
12664;BME280;6396;58.490;15.528;2023-04-23T09:22:06;99541.31;;;22.82;33.44
12664;BME280;6396;58.490;15.528;2023-04-23T09:24:34;99497.38;;;22.24;34.19
12664;BME280;6396;58.490;15.528;2023-04-23T09:27:03;99514.34;;;22.05;34.57
12664;BME280;6396;58.490;15.528;2023-04-23T09:29:30;99537.38;;;21.89;35.05
12664;BME280;6396;58.490;15.528;2023-04-23T09:32:06;99515.72;;;21.51;34.81
12664;BME280;6396;58.490;15.528;2023-04-23T09:34:36;99546.00;;;21.23;35.74
12664;BME280;6396;58.490;15.528;2023-04-23T09:37:04;99520.75;;;21.04;36.27
12664;BME280;6396;58.490;15.528;2023-04-23T09:39:34;99490.44;;;20.52;36.58
12664;BME280;6396;58.490;15.528;2023-04-23T09:42:04;99541.88;;;20.77;37.65
12664;BME280;6396;58.490;15.528;2023-04-23T09:44:40;99468.28;;;20.39;37.72
12664;BME280;6396;58.490;15.528;2023-04-23T09:47:07;99539.22;;;20.66;37.61
12664;BME280;6396;58.490;15.528;2023-04-23T09:49:54;99587.03;;;20.41;38.78
12664;BME280;6396;58.490;15.528;2023-04-23T09:52:21;99498.47;;;19.77;38.74
12664;BME280;6396;58.490;15.528;2023-04-23T09:54:48;99513.91;;;19.96;38.97
12664;BME280;6396;58.490;15.528;2023-04-23T09:57:16;99473.66;;;19.64;39.02
12664;BME280;6396;58.490;15.528;2023-04-23T09:59:45;99535.41;;;20.06;39.24
12664;BME280;6396;58.490;15.528;2023-04-23T10:02:12;99523.41;;;19.89;39.44
12664;BME280;6396;58.490;15.528;2023-04-23T10:04:39;99260.69;;;18.42;39.36
12664;BME280;6396;58.490;15.528;2023-04-23T10:07:06;99485.34;;;19.63;39.39
12664;BME280;6396;58.490;15.528;2023-04-23T10:09:42;99472.22;;;19.49;39.33
12664;BME280;6396;58.490;15.528;2023-04-23T10:12:09;99118.03;;;17.32;39.50
12664;BME280;6396;58.490;15.528;2023-04-23T10:14:40;99528.94;;;19.43;40.42
12664;BME280;6396;58.490;15.528;2023-04-23T10:17:08;99514.72;;;19.43;40.45
12664;BME280;6396;58.490;15.528;2023-04-23T10:19:36;99502.53;;;19.39;41.13
12664;BME280;6396;58.490;15.528;2023-04-23T10:22:07;99494.50;;;19.39;41.17
12664;BME280;6396;58.490;15.528;2023-04-23T10:24:38;99190.88;;;17.56;41.61
12664;BME280;6396;58.490;15.528;2023-04-23T10:27:10;99407.03;;;18.73;41.94
12664;BME280;6396;58.490;15.528;2023-04-23T10:29:38;99494.38;;;19.40;41.93
12664;BME280;6396;58.490;15.528;2023-04-23T10:32:07;99377.22;;;18.55;41.96
12664;BME280;6396;58.490;15.528;2023-04-23T10:34:35;99186.78;;;16.94;42.14
12664;BME280;6396;58.490;15.528;2023-04-23T10:37:02;99489.41;;;19.36;42.86
12664;BME280;6396;58.490;15.528;2023-04-23T10:39:31;99488.00;;;19.19;42.34
12664;BME280;6396;58.490;15.528;2023-04-23T10:41:59;99489.53;;;19.34;42.57
12664;BME280;6396;58.490;15.528;2023-04-23T10:44:35;99489.00;;;19.40;43.09
12664;BME280;6396;58.490;15.528;2023-04-23T10:47:04;99479.25;;;19.61;43.19
12664;BME280;6396;58.490;15.528;2023-04-23T10:49:48;99436.66;;;19.47;41.98
12664;BME280;6396;58.490;15.528;2023-04-23T10:52:16;99470.31;;;19.83;42.58
12664;BME280;6396;58.490;15.528;2023-04-23T10:54:48;99367.69;;;19.40;42.31
12664;BME280;6396;58.490;15.528;2023-04-23T10:57:15;99513.78;;;19.97;42.47
12664;BME280;6396;58.490;15.528;2023-04-23T10:59:51;99372.66;;;19.44;42.07
12664;BME280;6396;58.490;15.528;2023-04-23T11:02:20;99431.13;;;19.82;42.09
12664;BME280;6396;58.490;15.528;2023-04-23T11:04:53;99439.66;;;19.76;42.06
12664;BME280;6396;58.490;15.528;2023-04-23T11:07:24;99411.94;;;19.66;42.65
12664;BME280;6396;58.490;15.528;2023-04-23T11:09:57;99445.31;;;19.93;43.28
12664;BME280;6396;58.490;15.528;2023-04-23T11:12:31;99450.28;;;19.98;43.69
12664;BME280;6396;58.490;15.528;2023-04-23T11:15:09;99435.78;;;20.00;42.88
12664;BME280;6396;58.490;15.528;2023-04-23T11:18:10;99382.63;;;19.53;42.37
12664;BME280;6396;58.490;15.528;2023-04-23T11:20:37;99092.00;;;17.91;42.71
12664;BME280;6396;58.490;15.528;2023-04-23T11:23:04;99303.38;;;19.08;42.46
12664;BME280;6396;58.490;15.528;2023-04-23T11:25:32;99434.69;;;20.03;42.44
12664;BME280;6396;58.490;15.528;2023-04-23T11:28:01;99145.75;;;18.31;42.52
12664;BME280;6396;58.490;15.528;2023-04-23T11:30:29;99323.66;;;19.33;42.59
12664;BME280;6396;58.490;15.528;2023-04-23T11:32:58;99445.59;;;19.90;42.47
12664;BME280;6396;58.490;15.528;2023-04-23T11:35:34;99376.88;;;19.58;45.48
12664;BME280;6396;58.490;15.528;2023-04-23T11:38:07;99441.41;;;19.97;45.49
12664;BME280;6396;58.490;15.528;2023-04-23T11:40:50;99467.03;;;19.79;47.90
12664;BME280;6396;58.490;15.528;2023-04-23T11:43:19;99439.66;;;19.65;47.40
12664;BME280;6396;58.490;15.528;2023-04-23T11:45:47;99459.00;;;19.79;48.11
12664;BME280;6396;58.490;15.528;2023-04-23T11:48:16;99404.53;;;19.47;50.67
12664;BME280;6396;58.490;15.528;2023-04-23T11:50:45;99458.63;;;19.84;50.56
12664;BME280;6396;58.490;15.528;2023-04-23T11:53:12;99396.47;;;19.58;49.56
12664;BME280;6396;58.490;15.528;2023-04-23T11:55:41;99437.91;;;19.86;50.63
12664;BME280;6396;58.490;15.528;2023-04-23T11:58:10;99291.03;;;18.85;51.66
12664;BME280;6396;58.490;15.528;2023-04-23T12:00:37;99308.41;;;19.02;51.77
12664;BME280;6396;58.490;15.528;2023-04-23T12:03:04;99399.44;;;19.44;52.41
12664;BME280;6396;58.490;15.528;2023-04-23T12:05:34;99430.81;;;19.53;51.61
12664;BME280;6396;58.490;15.528;2023-04-23T12:08:08;99438.91;;;19.31;51.98
12664;BME280;6396;58.490;15.528;2023-04-23T12:10:53;99404.09;;;19.20;52.53
12664;BME280;6396;58.490;15.528;2023-04-23T12:13:22;99437.19;;;19.30;51.84
12664;BME280;6396;58.490;15.528;2023-04-23T12:15:52;99450.31;;;19.11;52.84
12664;BME280;6396;58.490;15.528;2023-04-23T12:18:28;99419.41;;;19.18;54.74
12664;BME280;6396;58.490;15.528;2023-04-23T12:21:03;99414.19;;;19.17;54.19
12664;BME280;6396;58.490;15.528;2023-04-23T12:23:32;99372.97;;;18.97;53.72
12664;BME280;6396;58.490;15.528;2023-04-23T12:26:00;99409.44;;;19.20;53.58
12664;BME280;6396;58.490;15.528;2023-04-23T12:28:28;99411.84;;;19.23;53.74
12664;BME280;6396;58.490;15.528;2023-04-23T12:30:58;99260.88;;;18.39;53.99
12664;BME280;6396;58.490;15.528;2023-04-23T12:33:27;99293.84;;;18.61;55.46
12664;BME280;6396;58.490;15.528;2023-04-23T12:36:01;99411.75;;;19.36;55.78
12664;BME280;6396;58.490;15.528;2023-04-23T12:38:31;99414.91;;;19.41;56.74
12664;BME280;6396;58.490;15.528;2023-04-23T12:40:58;99404.66;;;19.57;56.41
12664;BME280;6396;58.490;15.528;2023-04-23T12:43:26;99406.75;;;19.42;56.68
12664;BME280;6396;58.490;15.528;2023-04-23T12:45:53;98997.25;;;17.30;57.24
12664;BME280;6396;58.490;15.528;2023-04-23T12:48:20;99223.97;;;18.66;56.92
12664;BME280;6396;58.490;15.528;2023-04-23T12:50:48;99396.22;;;19.93;57.33
12664;BME280;6396;58.490;15.528;2023-04-23T12:53:17;99382.25;;;20.10;57.63
12664;BME280;6396;58.490;15.528;2023-04-23T12:55:44;99376.94;;;20.31;58.10
12664;BME280;6396;58.490;15.528;2023-04-23T12:58:10;99267.88;;;19.49;58.15
12664;BME280;6396;58.490;15.528;2023-04-23T13:00:46;99352.34;;;20.46;58.89
12664;BME280;6396;58.490;15.528;2023-04-23T13:03:13;99371.72;;;20.59;58.13
12664;BME280;6396;58.490;15.528;2023-04-23T13:05:41;99262.69;;;19.98;58.96